createdAt,value
2023-01-10T00:00:15.834Z,1002.474270
2023-01-10T00:05:16.115Z,1002.614128
2023-01-10T00:10:15.716Z,1002.793997
2023-01-10T00:15:16.268Z,1002.853847
2023-01-10T00:20:15.548Z,1002.934175
2023-01-10T00:25:16.224Z,1002.934207
2023-01-10T00:30:15.948Z,1002.973671
2023-01-10T00:35:15.632Z,1003.033111
2023-01-10T00:40:15.873Z,1003.112861
2023-01-10T00:45:16.419Z,1003.132521
2023-01-10T00:50:16.273Z,1003.253057
2023-01-10T00:55:15.914Z,1003.272741
2023-01-10T01:00:15.594Z,1003.332288
2023-01-10T01:05:16.217Z,1003.532670
2023-01-10T01:10:16.381Z,1003.752972
2023-01-10T01:15:16.160Z,1003.853475
2023-01-10T01:20:15.881Z,1003.955231
2023-01-10T01:25:15.599Z,1003.995617
2023-01-10T01:30:16.150Z,1003.954511
2023-01-10T01:35:16.121Z,1004.013010
2023-01-10T01:40:15.956Z,1004.152435
2023-01-10T01:45:15.660Z,1004.213471
2023-01-10T01:50:16.259Z,1004.016449
2023-01-10T01:55:15.662Z,1003.939183
2023-01-10T02:00:16.344Z,1003.979573
2023-01-10T02:05:16.338Z,1003.901275
2023-01-10T02:10:15.662Z,1003.801259
2023-01-10T02:15:15.639Z,1003.640810
2023-01-10T02:20:16.739Z,1003.579720
2023-01-10T02:25:15.513Z,1003.717850
2023-01-10T02:30:15.608Z,1003.760316
2023-01-10T02:35:16.771Z,1003.680403
2023-01-10T02:40:16.575Z,1003.480644
2023-01-10T02:45:16.026Z,1003.441148
2023-01-10T02:50:15.760Z,1003.440570
2023-01-10T02:55:16.783Z,1003.460598
2023-01-10T03:00:16.998Z,1003.480363
2023-01-10T03:05:15.809Z,1003.640205
2023-01-10T03:10:15.821Z,1003.619982
2023-01-10T03:15:16.447Z,1003.639470
2023-01-10T03:20:15.989Z,1003.799778
2023-01-10T03:25:16.419Z,1003.920221
2023-01-10T03:30:15.675Z,1004.101255
2023-01-10T03:35:15.832Z,1004.241027
2023-01-10T03:40:15.603Z,1004.420911
2023-01-10T03:45:16.053Z,1004.640290
2023-01-10T03:50:15.965Z,1004.760555
2023-01-10T03:55:15.483Z,1004.699332
2023-01-10T04:00:16.231Z,1004.860871
2023-01-10T04:05:15.788Z,1005.042082
2023-01-10T04:10:15.810Z,1005.101512
2023-01-10T04:15:16.313Z,1005.221459
2023-01-10T04:20:16.387Z,1005.281070
2023-01-10T04:25:16.174Z,1005.381548
2023-01-10T04:30:15.615Z,1005.361341
2023-01-10T04:35:15.621Z,1005.402856
2023-01-10T04:40:15.905Z,1005.464046
2023-01-10T04:45:16.528Z,1005.601679
2023-01-10T04:50:17.898Z,1005.682120
2023-01-10T04:55:15.715Z,1005.641998
2023-01-10T05:00:16.337Z,1005.622105
2023-01-10T05:05:16.037Z,1005.583836
2023-01-10T05:10:16.064Z,1005.505286
2023-01-10T05:15:15.913Z,1005.526506
2023-01-10T05:20:15.499Z,1005.468434
2023-01-10T05:25:16.643Z,1005.349072
2023-01-10T05:30:15.514Z,1005.308038
2023-01-10T05:35:15.749Z,1005.307924
2023-01-10T05:40:16.065Z,1005.388840
2023-01-10T05:45:16.883Z,1005.359770
2023-01-10T05:50:17.456Z,1005.249636
2023-01-10T05:55:16.104Z,1005.288758
2023-01-10T06:00:15.568Z,1005.328774
2023-01-10T06:05:17.359Z,1005.609455
2023-01-10T06:10:15.674Z,1005.669087
2023-01-10T06:15:15.574Z,1005.629211
2023-01-10T06:20:16.251Z,1005.569062
2023-01-10T06:25:15.985Z,1005.569459
2023-01-10T06:30:15.529Z,1005.548720
2023-01-10T06:35:16.969Z,1005.528846
2023-01-10T06:40:16.261Z,1005.548911
2023-01-10T06:45:16.284Z,1005.528886
2023-01-10T06:50:15.511Z,1005.488100
2023-01-10T06:55:15.490Z,1005.528246
2023-01-10T07:00:16.764Z,1005.606187
2023-01-10T07:05:15.684Z,1005.666144
2023-01-10T07:10:15.582Z,1005.807908
2023-01-10T07:15:16.274Z,1005.809159
2023-01-10T07:20:15.751Z,1005.829935
2023-01-10T07:25:15.746Z,1005.910395
2023-01-10T07:30:16.035Z,1005.930627
2023-01-10T07:35:16.022Z,1006.070240
2023-01-10T07:40:16.204Z,1006.210890
2023-01-10T07:45:16.109Z,1006.210623
2023-01-10T07:50:17.857Z,1006.229906
2023-01-10T07:55:15.741Z,1006.289231
2023-01-10T08:00:18.692Z,1006.229569
2023-01-10T08:05:16.995Z,1006.270837
2023-01-10T08:10:16.498Z,1006.291556
2023-01-10T08:15:15.567Z,1006.309808
2023-01-10T08:20:16.148Z,1006.269859
2023-01-10T08:25:17.080Z,1006.350401
2023-01-10T08:30:16.086Z,1006.349844
2023-01-10T08:35:17.483Z,1006.268894
2023-01-10T08:40:15.712Z,1006.247825
2023-01-10T08:45:15.874Z,1006.209762
2023-01-10T08:50:15.878Z,1006.230119
2023-01-10T08:55:16.498Z,1006.250965
2023-01-10T09:00:15.556Z,1006.230698
2023-01-10T09:05:27.044Z,1006.192277
2023-01-10T09:10:15.859Z,1006.292363
2023-01-10T09:15:15.880Z,1006.371420
2023-01-10T09:20:16.436Z,1006.411597
2023-01-10T09:25:16.506Z,1006.431609
2023-01-10T09:30:15.980Z,1006.391614
2023-01-10T09:35:15.861Z,1006.410611
2023-01-10T09:40:15.931Z,1006.391902
2023-01-10T09:45:16.307Z,1006.392165
2023-01-10T09:50:15.614Z,1006.452259
2023-01-10T09:55:15.983Z,1006.552601
2023-01-10T10:00:15.768Z,1006.532347
2023-01-10T10:05:16.110Z,1006.530678
2023-01-10T10:10:16.079Z,1006.570934
2023-01-10T10:15:15.956Z,1006.610638
2023-01-10T10:20:15.819Z,1006.671195
2023-01-10T10:25:15.559Z,1006.711084
2023-01-10T10:30:15.881Z,1006.630880
2023-01-10T10:35:18.027Z,1006.650662
2023-01-10T10:40:16.512Z,1006.670719
2023-01-10T10:45:15.820Z,1006.690487
2023-01-10T10:50:15.977Z,1006.830646
2023-01-10T10:55:15.505Z,1006.850990
2023-01-10T11:00:16.402Z,1006.831037
2023-01-10T11:05:15.714Z,1006.870649
2023-01-10T11:10:16.333Z,1006.849556
2023-01-10T11:15:15.679Z,1006.889919
2023-01-10T11:20:16.048Z,1006.870483
2023-01-10T11:25:16.469Z,1006.870844
2023-01-10T11:30:16.040Z,1006.831070
2023-01-10T11:35:15.775Z,1006.770636
2023-01-10T11:40:17.944Z,1006.731258
2023-01-10T11:45:16.114Z,1006.711479
2023-01-10T11:50:16.316Z,1006.751825
2023-01-10T11:55:16.410Z,1006.711391
2023-01-10T12:00:15.723Z,1006.711078
2023-01-10T12:05:15.752Z,1006.730464
2023-01-10T12:10:15.619Z,1006.709768
2023-01-10T12:15:16.456Z,1006.730354
2023-01-10T12:20:16.097Z,1006.810640
2023-01-10T12:25:15.751Z,1006.750718
2023-01-10T12:30:16.242Z,1006.749916
2023-01-10T12:35:16.239Z,1006.710030
2023-01-10T12:40:16.663Z,1006.730070
2023-01-10T12:45:15.796Z,1006.650332
2023-01-10T12:50:15.924Z,1006.629859
2023-01-10T12:55:16.886Z,1006.630251
2023-01-10T13:00:16.000Z,1006.570653
2023-01-10T13:05:16.004Z,1006.630935
2023-01-10T13:10:16.127Z,1006.671980
2023-01-10T13:15:16.274Z,1006.672463
2023-01-10T13:20:15.781Z,1006.692128
2023-01-10T13:25:15.814Z,1006.653502
2023-01-10T13:30:16.667Z,1006.593461
2023-01-10T13:35:16.161Z,1006.551944
2023-01-10T13:40:16.704Z,1006.592107
2023-01-10T13:45:17.196Z,1006.611679
2023-01-10T13:50:17.254Z,1006.490809
2023-01-10T13:55:15.562Z,1006.511256
2023-01-10T14:00:16.002Z,1006.411646
2023-01-10T14:05:15.786Z,1006.351732
2023-01-10T14:10:16.176Z,1006.373186
2023-01-10T14:15:15.759Z,1006.312424
2023-01-10T14:20:15.889Z,1006.313216
2023-01-10T14:25:15.934Z,1006.353454
2023-01-10T14:30:15.866Z,1006.333295
2023-01-10T14:35:16.014Z,1006.313918
2023-01-10T14:40:15.985Z,1006.254421
2023-01-10T14:45:15.648Z,1006.133800
2023-01-10T14:50:16.172Z,1006.092448
2023-01-10T14:55:16.785Z,1006.110573
2023-01-10T15:00:17.747Z,1006.070587
2023-01-10T15:05:15.866Z,1006.031358
2023-01-10T15:10:16.205Z,1005.991289
2023-01-10T15:15:16.610Z,1006.010750
2023-01-10T15:20:15.596Z,1005.930350
2023-01-10T15:25:17.028Z,1005.853317
2023-01-10T15:30:15.658Z,1005.793080
2023-01-10T15:35:20.263Z,1005.669861
2023-01-10T15:40:15.577Z,1005.608956
2023-01-10T15:45:15.639Z,1005.529835
2023-01-10T15:50:16.058Z,1005.429446
2023-01-10T15:55:15.852Z,1005.507301
2023-01-10T16:00:16.103Z,1005.587656
2023-01-10T16:05:16.084Z,1005.509446
2023-01-10T16:10:15.585Z,1005.509484
2023-01-10T16:15:16.101Z,1005.429384
2023-01-10T16:20:15.876Z,1005.347083
2023-01-10T16:25:16.837Z,1005.267650
2023-01-10T16:30:15.791Z,1005.203951
2023-01-10T16:35:18.340Z,1005.164836
2023-01-10T16:40:15.619Z,1005.144358
2023-01-10T16:45:15.804Z,1005.183820
2023-01-10T16:50:15.917Z,1005.184047
2023-01-10T16:55:16.760Z,1005.123565
2023-01-10T17:00:15.637Z,1005.142007
2023-01-10T17:05:16.671Z,1005.121289
2023-01-10T17:10:15.632Z,1005.097937
2023-01-10T17:15:16.247Z,1005.093784
2023-01-10T17:20:16.173Z,1005.129497
2023-01-10T17:25:15.689Z,1005.170694
2023-01-10T17:30:16.022Z,1005.168814
2023-01-10T17:35:15.840Z,1005.178536
2023-01-10T17:40:16.827Z,1005.218840
2023-01-10T17:45:16.437Z,1005.237995
2023-01-10T17:50:16.214Z,1005.195257
2023-01-10T17:55:15.994Z,1005.095343
2023-01-10T18:00:16.486Z,1005.033991
2023-01-10T18:05:16.226Z,1004.949487
2023-01-10T18:10:15.703Z,1004.927387
2023-01-10T18:15:16.304Z,1004.823129
2023-01-10T18:20:16.105Z,1004.703529
2023-01-10T18:25:15.919Z,1004.544278
2023-01-10T18:30:16.246Z,1004.544978
2023-01-10T18:35:16.468Z,1004.586072
2023-01-10T18:40:15.935Z,1004.643767
2023-01-10T18:45:16.888Z,1004.585215
2023-01-10T18:50:15.598Z,1004.546812
2023-01-10T18:55:15.991Z,1004.364748
2023-01-10T19:00:17.335Z,1004.364086
2023-01-10T19:05:16.197Z,1004.349206
2023-01-10T19:10:17.555Z,1004.226934
2023-01-10T19:15:16.648Z,1004.168392
2023-01-10T19:20:17.239Z,1004.146651
2023-01-10T19:25:17.033Z,1004.147936
2023-01-10T19:30:15.713Z,1004.083614
2023-01-10T19:35:16.751Z,1004.067378
2023-01-10T19:40:16.167Z,1004.027725
2023-01-10T19:45:16.761Z,1003.962464
2023-01-10T19:50:16.021Z,1003.862251
2023-01-10T19:55:17.013Z,1003.764214
2023-01-10T20:00:15.970Z,1003.703862
2023-01-10T20:05:16.271Z,1003.668296
2023-01-10T20:10:16.417Z,1003.606872
2023-01-10T20:15:16.133Z,1003.648551
2023-01-10T20:20:16.487Z,1003.702963
2023-01-10T20:25:16.090Z,1003.663986
2023-01-10T20:30:16.153Z,1003.704900
2023-01-10T20:35:15.761Z,1003.703698
2023-01-10T20:40:16.234Z,1003.660425
2023-01-10T20:45:15.481Z,1003.619176
2023-01-10T20:50:16.057Z,1003.701956
2023-01-10T20:55:15.833Z,1003.663246
2023-01-10T21:00:16.938Z,1003.683230
2023-01-10T21:05:15.721Z,1003.641690
2023-01-10T21:10:15.963Z,1003.583758
2023-01-10T21:15:15.781Z,1003.582003
2023-01-10T21:20:15.613Z,1003.542274
2023-01-10T21:25:16.684Z,1003.483837
2023-01-10T21:30:16.232Z,1003.383849
2023-01-10T21:35:17.366Z,1003.363414
2023-01-10T21:40:16.346Z,1003.262659
2023-01-10T21:45:16.692Z,1003.261760
2023-01-10T21:50:16.422Z,1003.242300
2023-01-10T21:55:15.797Z,1003.182118
2023-01-10T22:00:15.846Z,1003.142296
2023-01-10T22:05:16.406Z,1003.023479
2023-01-10T22:10:15.971Z,1002.983478
2023-01-10T22:15:16.304Z,1002.983994
2023-01-10T22:20:15.940Z,1002.864495
2023-01-10T22:25:17.305Z,1002.865428
2023-01-10T22:30:15.751Z,1003.005594
2023-01-10T22:35:16.079Z,1003.106594
2023-01-10T22:40:16.033Z,1003.225898
2023-01-10T22:45:16.130Z,1003.325182
2023-01-10T22:50:16.140Z,1003.405622
2023-01-10T22:55:16.367Z,1003.565826
2023-01-10T23:00:15.652Z,1003.565798
2023-01-10T23:05:16.267Z,1003.747937
2023-01-10T23:10:29.170Z,1003.807651
2023-01-10T23:15:16.099Z,1003.828372
2023-01-10T23:20:16.445Z,1003.769502
2023-01-10T23:25:15.614Z,1003.749380
2023-01-10T23:30:15.709Z,1003.709100
2023-01-10T23:35:16.496Z,1003.689099
2023-01-10T23:40:15.714Z,1003.628985
2023-01-10T23:45:15.702Z,1003.668898
2023-01-10T23:50:16.359Z,1003.568992
2023-01-10T23:55:15.857Z,1003.448846
